Flight Track Log - Related Links

Times and Time Zones

All times are in EDT time to prevent confusion due to time zone crossing. See the AAY853 flight status page for this flight to view local times or setup timezone preferences in your user account.

Time Position Orientation Groundspeed Altitude Reporting Facility
EDT Latitude Longitude Course Direction KTS MPH feet Rate Location/Type
Fri 10:51:59 AM 44.5420 -73.3970 163° South 268 308 5,000  Level FlightAware ADS-B
Fri 10:52:10 AM 44.5270 -73.3930 172° South 277 319 5,400 2,769 Climbing FlightAware ADS-B
Fri 10:52:25 AM 44.5080 -73.3900 174° South 279 321 6,200 2,903 Climbing FlightAware ADS-B
Fri 10:53:12 AM 44.4450 -73.3790 171° South 296 341 8,400 2,545 Climbing FlightAware ADS-B
Fri 10:53:31 AM 44.4200 -73.3740 170° South 310 357 9,000 2,167 Climbing FlightAware ADS-B
Fri 10:53:48 AM 44.3960 -73.3680 170° South 319 367 9,700 2,400 Climbing FlightAware ADS-B
Fri 10:54:01 AM 44.3770 -73.3670 184° South 317 365 10,200 1,571 Climbing FlightAware ADS-B
Fri 10:54:30 AM 44.3320 -73.3780 192° South 346 398 10,800 1,627 Climbing FlightAware ADS-B
Fri 10:55:00 AM 44.2830 -73.3920 192° South 367 422 11,800 2,364 Climbing FlightAware ADS-B
Fri 10:55:36 AM 44.2240 -73.4080 192° South 371 427 13,400 2,507 Climbing FlightAware ADS-B
Fri 10:56:07 AM 44.1710 -73.4230 192° South 380 437 14,600 2,361 Climbing FlightAware ADS-B
Fri 10:56:37 AM 44.1170 -73.4370 192° South 388 447 15,800 2,308 Climbing FlightAware ADS-B
Fri 10:57:12 AM 44.0550 -73.4540 192° South 392 451 17,100 2,226 Climbing FlightAware ADS-B
Fri 10:57:39 AM 44.0070 -73.4670 192° South 396 456 18,100 2,025 Climbing FlightAware ADS-B
Fri 10:58:32 AM 43.9109 -73.4934 191° South 407 468 19,800 1,851 Climbing FlightAware ADS-B
Fri 10:59:13 AM 43.8350 -73.5140 192° South 416 479 21,000 1,714 Climbing FlightAware ADS-B
Fri 11:00:31 AM 43.6870 -73.5540 192° South 430 495 23,200 1,624 Climbing FlightAware ADS-B
Fri 11:01:26 AM 43.5790 -73.5830 192° South 443 510 24,600 1,368 Climbing FlightAware ADS-B
Fri 11:01:28 AM 43.5879 -73.5804 191° South 440 506 24,500 1,500 Descending FlightAware ADS-B
Fri 11:02:02 AM 43.5050 -73.6030 192° South 446 513 25,500 1,714 Climbing FlightAware ADS-B
Fri 11:02:10 AM 43.4941 -73.6056 191° South 447 514 25,700 1,231 Climbing FlightAware ADS-B
Fri 11:02:41 AM 43.4233 -73.6246 191° South 455 524 26,300 1,260 Climbing FlightAware ADS-B
Fri 11:03:50 AM 43.2822 -73.6619 191° South 465 535 27,800 1,320 Climbing FlightAware ADS-B
Fri 11:04:21 AM 43.2121 -73.6805 191° South 469 540 28,500 1,200 Climbing FlightAware ADS-B
Fri 11:05:10 AM 43.1076 -73.7082 191° South 475 547 29,400 1,063 Climbing FlightAware ADS-B
Fri 11:05:40 AM 43.0428 -73.7253 191° South 478 550 29,900 689 Climbing FlightAware ADS-B
Fri 11:06:11 AM 42.9768 -73.7426 191° South 479 551 30,100 200 Climbing FlightAware ADS-B
Fri 11:07:10 AM 42.8465 -73.7766 191° South 483 556 30,200 692 Climbing FlightAware ADS-B
Fri 11:07:55 AM 42.8157 -73.7837 183° South 483 556 31,300 1,263 Climbing FlightAware ADS-B (EGDR)
Fri 11:08:26 AM 42.6772 -73.7909 176° South 488 562 31,800 897 Climbing FlightAware ADS-B (SBBR / BSB)
Fri 11:09:22 AM 42.5497 -73.7720 174° South 496 571 32,600 1,086 Climbing FlightAware ADS-B
Fri 11:10:22 AM 42.4137 -73.7514 174° South 491 565 33,900 1,150 Climbing FlightAware ADS-B
Fri 11:11:22 AM 42.2788 -73.7308 173° South 488 562 34,900 1,085 Climbing FlightAware ADS-B
Fri 11:11:56 AM 42.2413 -73.7250 174° South 487 560 35,600 904 Climbing FlightAware ADS-B (KSNC)
Fri 11:12:35 AM 42.1154 -73.7058 174° South 489 563 36,000 349 Climbing FlightAware ADS-B (KSNC)
Fri 11:13:22 AM 42.0101 -73.6902 174° South 488 562 36,100 75 Climbing FlightAware ADS-B
Fri 11:13:55 AM 41.9489 -73.6809 174° South 487 560 36,100  Level FlightAware ADS-B (KSNC)
Fri 11:14:31 AM 41.8606 -73.6676 174° South 488 562 36,100  Level FlightAware ADS-B (KSNC)
Fri 11:15:10 AM 41.7685 -73.6537 174° South 486 559 36,100  Level FlightAware ADS-B (KSNC)
Fri 11:15:41 AM 41.7032 -73.6440 174° South 486 559 36,100  Level FlightAware ADS-B (KSNC)
Fri 11:16:11 AM 41.6300 -73.6330 174° South 487 560 36,100 -98 Level FlightAware ADS-B (KSNC)
Fri 11:16:42 AM 41.5661 -73.6270 184° South 477 549 36,000  Descending FlightAware ADS-B (KSNC)
Fri 11:17:03 AM 41.5170 -73.6397 198° South 462 532 36,100 146 Climbing FlightAware ADS-B (KSNC)
Fri 11:17:23 AM 41.4794 -73.6631 211° Southwest 446 513 36,100  Level FlightAware ADS-B (KSNC)
Fri 11:17:54 AM 41.4304 -73.7139 220° Southwest 433 498 36,100  Level FlightAware ADS-B (KSNC)
Fri 11:18:24 AM 41.3845 -73.7657 220° Southwest 433 498 36,100 -86 Level FlightAware ADS-B (KSNC)
Fri 11:19:04 AM 41.3223 -73.8334 219° Southwest 434 499 36,000 -86 Descending FlightAware ADS-B (KSNC)
Fri 11:19:34 AM 41.2757 -73.8829 219° Southwest 435 501 36,000 77 Level FlightAware ADS-B (KSNC)
Fri 11:20:22 AM 41.1996 -73.9644 219° Southwest 435 501 36,100 74 Climbing FlightAware ADS-B (KSNC)
Fri 11:20:55 AM 41.1479 -74.0199 219° Southwest 434 499 36,100  Level FlightAware ADS-B (KSNC)
Fri 11:21:26 AM 41.1011 -74.0699 219° Southwest 433 498 36,100  Level FlightAware ADS-B (KSNC)
Fri 11:21:56 AM 41.0533 -74.1209 219° Southwest 432 497 36,100  Level FlightAware ADS-B (KSNC)
Fri 11:22:28 AM 41.0040 -74.1735 219° Southwest 430 495 36,100  Level FlightAware ADS-B (KSNC)
Fri 11:23:01 AM 40.9523 -74.2284 219° Southwest 429 494 36,100  Level FlightAware ADS-B (KSNC)
Fri 11:23:33 AM 40.9063 -74.2773 219° Southwest 427 491 36,100 240 Level FlightAware ADS-B (KPHL)
Fri 11:24:16 AM 40.8385 -74.3491 219° Southwest 430 495 36,400 506 Climbing FlightAware ADS-B (KPHL)
Fri 11:24:56 AM 40.8091 -74.3818 228° Southwest 422 486 36,800 741 Climbing FlightAware ADS-B (KSNC)
Fri 11:25:37 AM 40.7287 -74.5024 232° Southwest 414 476 37,400 592 Climbing FlightAware ADS-B (KPHL)
Fri 11:26:07 AM 40.6927 -74.5618 231° Southwest 417 480 37,500 295 Climbing FlightAware ADS-B (KPHL)
Fri 11:26:38 AM 40.6667 -74.6043 231° Southwest 420 483 37,700 537 Climbing FlightAware ADS-B (KPHL)
Fri 11:27:14 AM 40.6113 -74.6949 231° Southwest 418 481 38,100 324 Climbing FlightAware ADS-B
Fri 11:27:52 AM 40.5633 -74.7695 227° Southwest 424 488 38,100  Level FlightAware ADS-B (KPHL)
Fri 11:28:22 AM 40.5232 -74.8261 227° Southwest 424 488 38,100  Level FlightAware ADS-B (KPHL)
Fri 11:28:52 AM 40.4835 -74.8822 227° Southwest 425 489 38,100  Level FlightAware ADS-B (KPHL)
Fri 11:29:29 AM 40.4356 -74.9495 227° Southwest 482 555 38,100  Level FlightAware ADS-B
Fri 11:30:04 AM 40.3976 -75.0031 227° Southwest 430 495 38,100  Level FlightAware ADS-B (KPHL)
Fri 11:30:47 AM 40.3274 -75.1017 227° Southwest 432 497 38,100  Level FlightAware ADS-B (KPHL)
Fri 11:31:25 AM 40.2755 -75.1743 227° Southwest 434 499 38,100  Level FlightAware ADS-B (KPHL)
Fri 11:32:07 AM 40.2222 -75.2488 227° Southwest 436 502 38,100  Level FlightAware ADS-B (KPHL)
Fri 11:32:57 AM 40.1537 -75.3442 227° Southwest 439 505 38,100  Level FlightAware ADS-B (KPHL)
Fri 11:33:42 AM 40.0859 -75.4384 227° Southwest 442 509 38,100  Level FlightAware ADS-B (KPHL)
Fri 11:34:17 AM 40.0573 -75.4779 227° Southwest 442 509 38,100  Level FlightAware ADS-B
Fri 11:34:51 AM 39.9984 -75.5592 227° Southwest 440 506 38,100  Level FlightAware ADS-B
Fri 11:35:31 AM 39.9332 -75.6490 227° Southwest 438 504 38,100  Level FlightAware ADS-B
Fri 11:36:09 AM 39.8862 -75.7208 231° Southwest 434 499 38,100  Level FlightAware ADS-B
Fri 11:36:39 AM 39.8490 -75.7806 231° Southwest 432 497 38,100  Level FlightAware ADS-B
Fri 11:37:11 AM 39.8250 -75.8189 231° Southwest 431 496 38,100 -94 Level FlightAware ADS-B
Fri 11:37:43 AM 39.7673 -75.9106 231° Southwest 430 495 38,000 -83 Descending FlightAware ADS-B
Fri 11:38:23 AM 39.7163 -75.9918 231° Southwest 429 494 38,000 77 Level FlightAware ADS-B
Fri 11:39:01 AM 39.6677 -76.0688 231° Southwest 427 491 38,100 80 Climbing FlightAware ADS-B (LFML / MRS)
Fri 11:39:38 AM 39.6572 -76.0855 231° Southwest 426 490 38,100  Level FlightAware ADS-B
Fri 11:40:13 AM 39.5772 -76.2116 230° Southwest 426 490 38,100 -83 Level FlightAware ADS-B
Fri 11:40:50 AM 39.5296 -76.2845 230° Southwest 426 490 38,000 -111 Descending FlightAware ADS-B
Fri 11:41:07 AM 39.5088 -76.3163 230° Southwest 425 489 38,000  Level FlightAware ADS-B (KDAA)
Fri 11:41:23 AM 39.4912 -76.3431 230° Southwest 426 490 38,000  Level FlightAware ADS-B
Fri 11:41:37 AM 39.4711 -76.3739 230° Southwest 426 490 38,000  Level FlightAware ADS-B (KDAA)
Fri 11:41:58 AM 39.4446 -76.4146 230° Southwest 427 491 38,000  Level FlightAware ADS-B (LFML / MRS)
Fri 11:42:07 AM 39.4322 -76.4342 231° Southwest 427 491 38,000  Level FlightAware ADS-B (KDAA)
Fri 11:42:36 AM 39.3963 -76.4913 231° Southwest 429 494 38,000  Level FlightAware ADS-B
Fri 11:42:37 AM 39.3951 -76.4931 232° Southwest 429 494 38,000 188 Level FlightAware ADS-B (KDAA)
Fri 11:43:08 AM 39.3586 -76.5511 231° Southwest 429 494 38,100 188 Climbing FlightAware ADS-B (KDAA)
Fri 11:43:09 AM 39.3548 -76.5571 231° Southwest 429 494 38,100  Level FlightAware ADS-B (LFML / MRS)
Fri 11:43:38 AM 39.3188 -76.6138 231° Southwest 429 494 38,100  Level FlightAware ADS-B (KDAA)
Fri 11:43:41 AM 39.3175 -76.6158 231° Southwest 430 495 38,100  Level FlightAware ADS-B
Fri 11:43:51 AM 39.3024 -76.6395 231° Southwest 430 495 38,100  Level FlightAware ADS-B (KDAA)
Fri 11:44:13 AM 39.2921 -76.6557 231° Southwest 431 496 38,100  Level FlightAware ADS-B
Fri 11:44:37 AM 39.2443 -76.7306 231° Southwest 430 495 38,100  Level FlightAware ADS-B (KDAA)
Fri 11:44:45 AM 39.2455 -76.7285 230° Southwest 432 497 38,100  Level FlightAware ADS-B
Fri 11:45:07 AM 39.2051 -76.7916 231° Southwest 431 496 38,100  Level FlightAware ADS-B (KDAA)
Fri 11:45:17 AM 39.1960 -76.8057 230° Southwest 432 497 38,100  Level FlightAware ADS-B
Fri 11:45:37 AM 39.1667 -76.8513 231° Southwest 431 496 38,100  Level FlightAware ADS-B (KDAA)
Fri 11:45:56 AM 39.1430 -76.8882 231° Southwest 431 496 38,100  Level FlightAware ADS-B
Fri 11:46:06 AM 39.1316 -76.9060 231° Southwest 430 495 38,100  Level FlightAware ADS-B (KDAA)
Fri 11:46:27 AM 39.1048 -76.9476 231° Southwest 429 494 38,100  Level FlightAware ADS-B
Fri 11:46:37 AM 39.0914 -76.9683 231° Southwest 428 493 38,100  Level FlightAware ADS-B (KDAA)
Fri 11:46:57 AM 39.0661 -77.0070 229° Southwest 427 491 38,100  Level FlightAware ADS-B
Fri 11:47:06 AM 39.0533 -77.0247 227° Southwest 429 494 38,100  Level FlightAware ADS-B (KDAA)
Fri 11:47:15 AM 39.0412 -77.0402 226° Southwest 429 494 38,100  Level FlightAware ADS-B
Fri 11:47:21 AM 39.0427 -77.0384 221° Southwest 431 496 38,100  Level FlightAware ADS-B
Fri 11:47:57 AM 38.9785 -77.1104 221° Southwest 429 494 38,100 -150 Level FlightAware ADS-B (KDAA)
Fri 11:48:01 AM 38.9875 -77.1005 221° Southwest 429 494 38,000 -200 Descending FlightAware ADS-B (LFML / MRS)
Fri 11:48:27 AM 38.9333 -77.1601 221° Southwest 428 493 38,000  Level FlightAware ADS-B (KDAA)
Fri 11:48:31 AM 38.9274 -77.1665 221° Southwest 428 493 38,000  Level FlightAware ADS-B
Fri 11:48:57 AM 38.8882 -77.2096 221° Southwest 428 493 38,000  Level FlightAware ADS-B (KDAA)
Fri 11:49:27 AM 38.8423 -77.2600 221° Southwest 426 490 38,000  Level FlightAware ADS-B (KDAA)
Fri 11:49:43 AM 38.8192 -77.2852 221° Southwest 427 491 38,000  Level FlightAware ADS-B
Fri 11:49:57 AM 38.7968 -77.3096 221° Southwest 427 491 38,000  Level FlightAware ADS-B (KDAA)
Fri 11:50:22 AM 38.7596 -77.3502 221° Southwest 427 491 38,000  Level FlightAware ADS-B
Fri 11:50:27 AM 38.7520 -77.3586 221° Southwest 427 491 38,000  Level FlightAware ADS-B (KDAA)
Fri 11:50:57 AM 38.7064 -77.4082 221° Southwest 429 494 38,000  Level FlightAware ADS-B (KDAA)
Fri 11:51:01 AM 38.7010 -77.4141 221° Southwest 429 494 38,000  Level FlightAware ADS-B
Fri 11:51:27 AM 38.6617 -77.4568 221° Southwest 431 496 38,000  Level FlightAware ADS-B (KDAA)
Fri 11:51:43 AM 38.6372 -77.4833 221° Southwest 432 497 38,000 200 Level FlightAware ADS-B
Fri 11:51:57 AM 38.6159 -77.5065 221° Southwest 432 497 38,100 150 Climbing FlightAware ADS-B (KDAA)
Fri 11:52:23 AM 38.5751 -77.5506 221° Southwest 434 499 38,100  Level FlightAware ADS-B
Fri 11:52:27 AM 38.5690 -77.5574 221° Southwest 434 499 38,100  Level FlightAware ADS-B (KDAA)
Fri 11:52:57 AM 38.5237 -77.6061 221° Southwest 434 499 38,100  Level FlightAware ADS-B (KDAA)
Fri 11:53:26 AM 38.4816 -77.6517 221° Southwest 435 501 38,100  Level FlightAware ADS-B (KDAA)
Fri 11:53:43 AM 38.4528 -77.6826 221° Southwest 434 499 38,100  Level FlightAware ADS-B
Fri 11:54:27 AM 38.3854 -77.7551 221° Southwest 431 496 38,100  Level FlightAware ADS-B (KDAA)
Fri 11:54:44 AM 38.3596 -77.7830 221° Southwest 430 495 38,100  Level FlightAware ADS-B
Fri 11:54:57 AM 38.3400 -77.8042 221° Southwest 430 495 38,100  Level FlightAware ADS-B (KDAA)
Fri 11:55:24 AM 38.2993 -77.8479 221° Southwest 429 494 38,100 -200 Level FlightAware ADS-B
Fri 11:55:27 AM 38.2935 -77.8540 221° Southwest 429 494 38,000 -182 Descending FlightAware ADS-B (KDAA)
Fri 11:55:57 AM 38.2615 -77.8884 221° Southwest 430 495 38,000  Level FlightAware ADS-B (KDAA)
Fri 11:56:23 AM 38.2084 -77.9451 220° Southwest 429 494 38,000 90 Level FlightAware ADS-B
Fri 11:57:04 AM 38.1463 -78.0112 221° Southwest 428 493 38,100 50 Climbing FlightAware ADS-B
Fri 11:58:24 AM 38.0250 -78.1401 220° Southwest 428 493 38,100  Level FlightAware ADS-B
Fri 11:59:04 AM 37.9634 -78.2026 217° Southwest 430 495 38,100 -78 Level FlightAware ADS-B
Fri 11:59:41 AM 37.9033 -78.2584 217° Southwest 431 496 38,000  Descending FlightAware ADS-B
Fri 12:00:20 PM 37.8408 -78.3174 218° Southwest 432 497 38,100 75 Climbing FlightAware ADS-B
Fri 12:01:01 PM 37.7760 -78.3789 217° Southwest 432 497 38,100  Level FlightAware ADS-B
Fri 12:01:43 PM 37.7081 -78.4433 217° Southwest 432 497 38,100  Level FlightAware ADS-B
Fri 12:02:44 PM 37.6105 -78.5355 217° Southwest 431 496 38,100  Level FlightAware ADS-B
Fri 12:03:18 PM 37.5553 -78.5876 218° Southwest 425 489 38,100  Level FlightAware ADS-B (KWWD)
Fri 12:03:37 PM 37.5258 -78.6154 217° Southwest 432 497 38,100  Level FlightAware ADS-B
Fri 12:03:58 PM 37.4915 -78.6478 217° Southwest 431 496 38,100  Level FlightAware ADS-B
Fri 12:04:03 PM 37.4838 -78.6550 218° Southwest 426 490 38,100 -95 Level FlightAware ADS-B (KWWD)
Fri 12:05:01 PM 37.3915 -78.7418 217° Southwest 431 496 38,000  Descending FlightAware ADS-B
Fri 12:06:01 PM 37.2945 -78.8325 217° Southwest 433 498 38,100 55 Climbing FlightAware ADS-B
Fri 12:06:50 PM 37.2159 -78.9058 217° Southwest 426 490 38,100  Level FlightAware ADS-B (KWWD)
Fri 12:07:23 PM 37.1635 -78.9546 217° Southwest 433 498 38,100  Level FlightAware ADS-B
Fri 12:08:12 PM 37.0838 -79.0287 217° Southwest 432 497 38,100  Level FlightAware ADS-B
Fri 12:08:48 PM 37.0262 -79.0820 217° Southwest 427 491 38,100  Level FlightAware ADS-B (KWWD)
Fri 12:09:39 PM 36.9446 -79.1576 217° Southwest 433 498 38,100  Level FlightAware ADS-B
Fri 12:15:18 PM 36.3946 -79.6610 216° Southwest 436 502 38,100  Level FlightAware ADS-B (EFYL / YLI)
Fri 12:16:01 PM 36.3365 -79.7135 216° Southwest 435 501 38,100  Level FlightAware ADS-B (EFYL / YLI)
Fri 12:16:41 PM 36.2637 -79.7794 216° Southwest 435 501 38,100  Level FlightAware ADS-B (EFYL / YLI)
Fri 12:17:20 PM 36.1974 -79.8392 216° Southwest 434 499 38,100  Level FlightAware ADS-B (EFYL / YLI)
Fri 12:18:00 PM 36.1328 -79.8974 216° Southwest 433 498 38,100 -75 Level FlightAware ADS-B (EFYL / YLI)
Fri 12:18:40 PM 36.0664 -79.9551 212° Southwest 438 504 38,000 -74 Descending FlightAware ADS-B (EFYL / YLI)
Fri 12:19:21 PM 35.9922 -80.0029 203° Southwest 449 517 38,000 74 Level FlightAware ADS-B (EFYL / YLI)
Fri 12:20:01 PM 35.9147 -80.0418 202° Southwest 449 517 38,100 76 Climbing FlightAware ADS-B (EFYL / YLI)
Fri 12:20:40 PM 35.8394 -80.0799 202° Southwest 449 517 38,100  Level FlightAware ADS-B (EFYL / YLI)
Fri 12:21:18 PM 35.7690 -80.1156 202° Southwest 449 517 38,100  Level FlightAware ADS-B (EFYL / YLI)
Fri 12:22:01 PM 35.6831 -80.1588 202° Southwest 449 517 38,100  Level FlightAware ADS-B (EFYL / YLI)
Fri 12:22:41 PM 35.6068 -80.1969 202° Southwest 450 518 38,100  Level FlightAware ADS-B (EFYL / YLI)
Fri 12:23:21 PM 35.5292 -80.2358 202° Southwest 450 518 38,100  Level FlightAware ADS-B (EFYL / YLI)
Fri 12:24:01 PM 35.4531 -80.2738 202° Southwest 449 517 38,100  Level FlightAware ADS-B (EFYL / YLI)
Fri 12:24:40 PM 35.3763 -80.3120 202° Southwest 449 517 38,100  Level FlightAware ADS-B (EFYL / YLI)
Fri 12:25:18 PM 35.3045 -80.3477 202° Southwest 448 516 38,100  Level FlightAware ADS-B (EFYL / YLI)
Fri 12:25:58 PM 35.2291 -80.3853 202° Southwest 447 514 38,100  Level FlightAware ADS-B (EFYL / YLI)
Fri 12:26:41 PM 35.1436 -80.4277 202° Southwest 446 513 38,100  Level FlightAware ADS-B (EFYL / YLI)
Fri 12:27:21 PM 35.0672 -80.4655 202° Southwest 447 514 38,100  Level FlightAware ADS-B (EFYL / YLI)
Fri 12:28:01 PM 35.0006 -80.4983 202° Southwest 446 513 38,100  Level FlightAware ADS-B (EFYL / YLI)
Fri 12:28:32 PM 34.9398 -80.5281 202° Southwest 445 512 38,100  Level FlightAware ADS-B (EFYL / YLI)
Fri 12:29:21 PM 34.8398 -80.5774 202° Southwest 446 513 38,100  Level FlightAware ADS-B (EFYL / YLI)
Fri 12:31:15 PM 34.6184 -80.6857 202° Southwest 446 513 38,100  Level FlightAware ADS-B
Fri 12:31:48 PM 34.5555 -80.7164 202° Southwest 446 513 38,100  Level FlightAware ADS-B
Fri 12:32:18 PM 34.4980 -80.7444 202° Southwest 447 514 38,100  Level FlightAware ADS-B
Fri 12:32:48 PM 34.4410 -80.7722 202° Southwest 447 514 38,100  Level FlightAware ADS-B
Fri 12:33:29 PM 34.3623 -80.8103 202° Southwest 446 513 38,100  Level FlightAware ADS-B
Fri 12:34:04 PM 34.2952 -80.8427 202° Southwest 447 514 38,100  Level FlightAware ADS-B
Fri 12:34:46 PM 34.2145 -80.8819 202° Southwest 447 514 38,100  Level FlightAware ADS-B
Fri 12:35:30 PM 34.1284 -80.9232 202° Southwest 448 516 38,100  Level FlightAware ADS-B
Fri 12:36:00 PM 34.0710 -80.9510 202° Southwest 447 514 38,100  Level FlightAware ADS-B
Fri 12:36:31 PM 34.0123 -80.9793 202° Southwest 447 514 38,100  Level FlightAware ADS-B
Fri 12:37:01 PM 33.9538 -81.0074 202° Southwest 447 514 38,100  Level FlightAware ADS-B
Fri 12:37:32 PM 33.8948 -81.0356 202° Southwest 448 516 38,100  Level FlightAware ADS-B
Fri 12:38:14 PM 33.8128 -81.0750 202° Southwest 448 516 38,100  Level FlightAware ADS-B
Fri 12:38:48 PM 33.7475 -81.1076 203° Southwest 447 514 38,100  Level FlightAware ADS-B
Fri 12:39:31 PM 33.6659 -81.1482 203° Southwest 447 514 38,100  Level FlightAware ADS-B
Fri 12:40:02 PM 33.6059 -81.1777 202° Southwest 448 516 38,100  Level FlightAware ADS-B
Fri 12:40:34 PM 33.5458 -81.2073 202° Southwest 447 514 38,100  Level FlightAware ADS-B
Fri 12:41:19 PM 33.4596 -81.2498 202° Southwest 447 514 38,100  Level FlightAware ADS-B
Fri 12:41:49 PM 33.4026 -81.2778 202° Southwest 447 514 38,100  Level FlightAware ADS-B
Fri 12:42:32 PM 33.3159 -81.3106 193° South 457 526 38,100  Level FlightAware ADS-B
Fri 12:43:02 PM 33.2538 -81.3283 194° South 458 527 38,100 -50 Level FlightAware ADS-B
Fri 12:44:33 PM 33.0844 -81.3803 194° South 459 528 38,000 -40 Descending Jacksonville Center
Fri 12:45:33 PM 32.9594 -81.4144 193° South 459 528 38,000  Level Jacksonville Center
Fri 12:46:33 PM 32.8367 -81.4511 194° South 459 528 38,000  Level Jacksonville Center
Fri 12:47:33 PM 32.7142 -81.4878 194° South 459 528 38,000 50 Level Jacksonville Center
Fri 12:48:33 PM 32.5808 -81.5267 194° South 452 520 38,100 15 Climbing Jacksonville Center
Fri 12:49:00 PM 32.5627 -81.5221 194° South  Level FlightAware Approximate
Fri 12:54:16 PM 32.3436 -81.5918 194° South 462 532 38,100  Level FlightAware ADS-B
Fri 12:55:33 PM 31.7169 -81.7739 194° South 470 541 38,100  Level Jacksonville Center
Fri 12:56:33 PM 31.5794 -81.8122 193° South 465 535 38,100  Level Jacksonville Center
Fri 12:57:33 PM 31.4669 -81.8428 193° South 471 542 38,100 -50 Level Jacksonville Center
Fri 12:58:33 PM 31.3378 -81.8806 194° South 471 542 38,000 -50 Descending Jacksonville Center
Fri 12:59:33 PM 31.2128 -81.9136 193° South 466 536 38,000  Level Jacksonville Center
Fri 01:00:33 PM 31.0878 -81.9489 194° South 466 536 38,000 14 Level Jacksonville Center
Fri 01:06:29 PM 30.3127 -82.1607 193° South 474 545 38,100 -72 Climbing FlightAware ADS-B
Fri 01:07:31 PM 30.1781 -82.1974 193° South 473 544 37,500 -841 Descending FlightAware ADS-B
Fri 01:08:16 PM 30.0847 -82.2230 193° South 478 550 36,600 -1,835 Descending FlightAware ADS-B
Fri 01:08:56 PM 29.9961 -82.2471 193° South 479 551 34,900 -2,484 Descending FlightAware ADS-B
Fri 01:10:24 PM 29.8076 -82.2983 193° South 488 562 31,300 -2,531 Descending FlightAware ADS-B
Fri 01:11:04 PM 29.7153 -82.3232 193° South 484 557 29,500 -2,391 Descending FlightAware ADS-B
Fri 01:12:32 PM 29.5268 -82.3506 173° South 468 539 26,200 -1,628 Descending FlightAware ADS-B
Fri 01:13:13 PM 29.4409 -82.3399 174° South 463 533 26,000 -220 Descending FlightAware ADS-B
Fri 01:13:54 PM 29.3493 -82.3292 174° South 462 532 25,900 -2,114 Descending FlightAware ADS-B
Fri 01:14:41 PM 29.2568 -82.3181 174° South 450 518 22,900 -4,275 Descending FlightAware ADS-B
Fri 01:15:14 PM 29.1825 -82.3093 174° South 433 498 20,200 -4,648 Descending FlightAware ADS-B
Fri 01:15:52 PM 29.1088 -82.3006 174° South 424 488 17,400 -2,968 Descending FlightAware ADS-B
Fri 01:16:49 PM 29.0045 -82.2883 174° South 403 464 15,500 -2,500 Descending FlightAware ADS-B
Fri 01:17:28 PM 28.9311 -82.2795 174° South 376 433 13,400 -1,149 Descending FlightAware ADS-B
Fri 01:19:10 PM 28.7848 -82.2627 174° South 293 337 12,800 -228 Descending FlightAware ADS-B
Fri 01:20:06 PM 28.7009 -82.2568 180° South 294 338 12,800 -569 Level FlightAware ADS-B
Fri 01:21:27 PM 28.5895 -82.2547 179° South 298 343 11,500 -1,043 Descending FlightAware ADS-B
Fri 01:22:24 PM 28.5219 -82.2846 244° Southwest 296 341 10,400 -776 Descending FlightAware ADS-B
Fri 01:23:23 PM 28.5139 -82.3683 244° Southwest 301 346 10,000 -231 Descending Miami Center
Fri 01:24:08 PM 28.5167 -82.4500 272° West 296 341 10,000  Level Tampa TRACON
Fri 01:25:08 PM 28.5000 -82.5333 257° West 294 338 10,000 -450 Level Tampa TRACON
Fri 01:26:08 PM 28.5000 -82.6333 270° West 294 338 9,100 -1,381 Descending Tampa TRACON
Fri 01:27:14 PM 28.4833 -82.7333 259° West 294 338 7,100 -1,700 Descending Tampa TRACON
Fri 01:28:08 PM 28.4333 -82.7500 196° South 254 292 5,700 -1,684 Descending Tampa TRACON
Fri 01:29:08 PM 28.3500 -82.7500 180° South 250 288 3,900 -1,350 Descending Tampa TRACON
Fri 01:30:08 PM 28.2833 -82.7333 168° South 248 285 3,000 -550 Descending Tampa TRACON
Fri 01:31:08 PM 28.2167 -82.7167 168° South 245 282 2,800 -350 Descending Tampa TRACON
Fri 01:32:08 PM 28.1500 -82.7000 168° South 227 261 2,300 -600 Descending Tampa TRACON
Fri 01:33:08 PM 28.1000 -82.6833 164° South 195 224 1,600 -350 Descending Tampa TRACON
Fri 01:34:08 PM 28.0500 -82.6667 164° South 186 214 1,600 -50 Level Tampa TRACON
Fri 01:35:08 PM 28.0000 -82.6667 180° South 176 203 1,500 -429 Descending Tampa TRACON
Fri 01:36:14 PM 27.9667 -82.7000 221° Southwest 139 160 700 -645 Descending Tampa TRACON
Fri 01:37:09 PM 27.9333 -82.7000 180° South 121 139 200 -545 Descending Tampa TRACON

Login

Don't have an account? Register now (free) for customized features, flight alerts, and more!